Itiuba, Brazil
Current Conditions -  °F | °C
As of 9:00 AM on Thursday 18 Dec 2014 (Local Time) from SBPL Reporting Station
Scattered Clouds Scattered Clouds  
Wind Chill: 84°   Ceiling: Unl
Heat Index: 91°   Visibility: 6mi
Dew Point: 73°   Wind: 2mph
Humidity: 70%   Direction: 210°SSW
Pressure: 30"   Gusts: NA
Location:  10.69°S, 39.85°W
Report Text: SBPL 181200Z 21002KT 9999 SCT020 SCT070 29/23 Q1016
Loading
Personal Weather Stations






























Interactive Weather Map New forecast layout! Learn more

10-Day Weather Forecast

Advertisements
Track Severe Weather on mobile